createdAt,value
2019-02-06T00:06:12.440Z,0.0
2019-02-06T00:17:18.083Z,0.0
2019-02-06T00:28:06.894Z,0.0
2019-02-06T00:38:56.993Z,0.0
2019-02-06T00:49:47.172Z,0.0
2019-02-06T01:00:03.284Z,0.0
2019-02-06T01:10:18.961Z,0.0
2019-02-06T01:21:07.215Z,0.0
2019-02-06T01:31:58.774Z,0.0
2019-02-06T01:42:44.424Z,0.0
2019-02-06T01:53:00.961Z,0.0
2019-02-06T02:04:24.565Z,0.0
2019-02-06T02:14:39.059Z,0.0
2019-02-06T02:24:55.767Z,0.0
2019-02-06T02:35:14.362Z,0.0
2019-02-06T02:45:31.087Z,0.0
2019-02-06T02:56:22.022Z,0.0
2019-02-06T03:09:20.535Z,0.0
2019-02-06T03:19:37.475Z,0.0
2019-02-06T03:30:24.462Z,0.0
2019-02-06T03:41:10.519Z,0.0
2019-02-06T03:51:22.037Z,0.0
2019-02-06T04:01:33.461Z,0.0
2019-02-06T04:11:45.390Z,0.0
2019-02-06T04:21:56.972Z,0.0
2019-02-06T04:32:08.003Z,0.0
2019-02-06T04:42:20.361Z,0.0
2019-02-06T04:53:05.374Z,0.0
2019-02-06T05:03:16.565Z,0.0
2019-02-06T05:13:35.619Z,0.0
2019-02-06T05:23:49.983Z,0.0
2019-02-06T05:34:34.778Z,0.0
2019-02-06T05:44:46.185Z,0.0
2019-02-06T05:54:57.504Z,0.0
2019-02-06T06:05:08.671Z,0.0
2019-02-06T06:15:20.353Z,0.0
2019-02-06T06:25:31.369Z,0.0
2019-02-06T06:36:16.182Z,0.0
2019-02-06T06:46:29.404Z,16.0
2019-02-06T06:56:41.004Z,64.0
2019-02-06T07:07:25.552Z,172.0
2019-02-06T07:18:10.122Z,328.0
2019-02-06T07:28:55.198Z,648.0
2019-02-06T07:39:07.361Z,1240.0
2019-02-06T07:49:18.876Z,1592.0
2019-02-06T07:59:32.189Z,1764.0
2019-02-06T08:09:45.238Z,2184.0
2019-02-06T08:19:58.479Z,2912.0
2019-02-06T08:30:43.285Z,3316.0
2019-02-06T08:40:56.779Z,3904.0
2019-02-06T08:51:07.608Z,4160.0
2019-02-06T09:01:19.303Z,2852.0
2019-02-06T09:11:30.566Z,1608.0
2019-02-06T09:21:43.701Z,1468.0
2019-02-06T09:31:55.507Z,1528.0
2019-02-06T09:42:09.696Z,3140.0
2019-02-06T09:52:26.593Z,2796.0
2019-02-06T10:02:34.810Z,2292.0
2019-02-06T10:12:48.162Z,2572.0
2019-02-06T10:23:32.655Z,2668.0
2019-02-06T10:33:44.198Z,2340.0
2019-02-06T10:43:57.394Z,3252.0
2019-02-06T10:54:08.583Z,3652.0
2019-02-06T11:04:55.264Z,3988.0
2019-02-06T11:15:06.795Z,3932.0
2019-02-06T11:25:17.928Z,3152.0
2019-02-06T11:35:29.384Z,3172.0
2019-02-06T11:46:15.753Z,2764.0
2019-02-06T11:56:27.180Z,2128.0
2019-02-06T12:07:12.025Z,2256.0
2019-02-06T12:17:23.160Z,2876.0
2019-02-06T12:28:10.191Z,2236.0
2019-02-06T12:38:57.127Z,2448.0
2019-02-06T12:49:43.507Z,1572.0
2019-02-06T13:00:30.812Z,2248.0
2019-02-06T13:10:54.368Z,1820.0
2019-02-06T13:21:08.344Z,2072.0
2019-02-06T13:31:50.971Z,1636.0
2019-02-06T13:42:46.046Z,1708.0
2019-02-06T13:53:46.435Z,2036.0
2019-02-06T14:04:43.476Z,1436.0
2019-02-06T14:17:41.112Z,1068.0
2019-02-06T14:30:38.825Z,1260.0
2019-02-06T14:42:30.789Z,1256.0
2019-02-06T14:53:27.886Z,1120.0
2019-02-06T15:04:51.452Z,1132.0
2019-02-06T15:15:27.227Z,524.0
2019-02-06T15:26:41.959Z,288.0
2019-02-06T15:37:47.003Z,228.0
2019-02-06T15:50:56.794Z,272.0
2019-02-06T16:02:17.537Z,176.0
2019-02-06T16:16:09.140Z,108.0
2019-02-06T16:27:15.070Z,28.0
2019-02-06T16:39:23.342Z,8.0
2019-02-06T16:51:44.222Z,0.0
2019-02-06T17:03:27.022Z,0.0
2019-02-06T17:15:01.494Z,0.0
2019-02-06T17:27:04.965Z,0.0
2019-02-06T17:37:17.134Z,0.0
2019-02-06T17:47:28.901Z,0.0
2019-02-06T22:35:19.078Z,0.0
2019-02-06T23:48:32.409Z,0.0
2019-02-06T23:59:06.840Z,0.0
